Rome, GA

12:08 AM EST on January 24, 2017 (GMT -0500)
Lavendar Mountain | | Change Station
Active Advisory: Flood Warning Active Notice: Public Information Statement

Elev 1362 ft 34.27 °N, 85.12 °W | Updated 32 seconds ago

Overcast
Overcast
45.7 °F
Feels Like 46 °F
N
1.0
Wind Variable Wind from ENE

Today
High -- | Low -- °F
--% Chance of Precip.
Yesterday
High -- | Low -- °F
Precip. -- in
Pressure 29.75 in
Visibility 10.0 miles
Clouds Overcast 2400 ft
Windchill 46 °F
Dew Point 41 °F
Humidity 83%
Rainfall 0.00 in
Snow Depth Not available.
7:42 AM 6:03 PM
Waning Crescent, 14% visible
METAR KRMG 240453Z AUTO 32007KT 10SM OVC024 10/05 A2977 RMK AO2 SLP075 T01000050 401500100
Pressure 29.75 in
Visibility 10.0 miles
Clouds Overcast 2400 ft
Windchill 46 °F
Dew Point 41 °F
Humidity 83%
Rainfall 0.00 in
Snow Depth Not available.
7:42 AM 6:03 PM
Waning Crescent, 14% visible
METAR KRMG 240453Z AUTO 32007KT 10SM OVC024 10/05 A2977 RMK AO2 SLP075 T01000050 401500100

Get Your Daily Forecast Email!

Thanks for signing up!

Be on the lookout for a verification email in your inbox.

You'll start receiving the daily forecast at 8 AM.

×

10-Day Weather Forecast

Almanac

Astronomy

Jan. 24, 2017 Rise Set
Actual Time
Civil Twilight
Nautical Twilight
Astronomical Twilight
Moon
Length of Visible Light
Length of Day
Tomorrow will be .
, % of the Moon is Illuminated

Today's Extremes

State Highs State Lows

Community

WunderPhotos

Upload Photos

1,962,540 photos uploaded!

WunderBlog® & News

Nearby

Air Quality

  Air Quality AQ Index Pollutant
Not available.

Snow Depth

Station Depth Elevation

Earthquake Activity

City Distance Mag. Time & Date
Minimum magnitude displayed is 2.5.

Coastal Water Temperatures

Place Temperature

Stations

Nearby Weather Stations

Station Location Temp. Windchill Dew Point Humidity Wind Precip. Elev Updated Type
                   

Watches & Warnings

Flood Warning
Issued: 8:54 PM EST Jan. 23, 2017 – National Weather Service

The Flood Warning continues for
the Armuchee creek near Armuchee.
* Until further notice.
* At 7pm Monday the stage was 19.8 feet... and rising.
* Minor flooding is occurring.
* Flood stage is 19 feet.
* At 19 feet... flood stage is reached. Minor flooding of
Woodlands... fields and pastures begins along the creek upstream and
downstream from the gage on old Dalton Road.




Lat... Lon 3449 8521 3448 8515 3442 8518 3436 8512
      3433 8515 3442 8525